sensor_id;sensor_type;location;lat;lon;timestamp;P1;durP1;ratioP1;P2;durP2;ratioP2
8564;SDS011;4320;51.498;6.556;2024-02-15T00:00:19;23.77;;;9.98;;
8564;SDS011;4320;51.498;6.556;2024-02-15T00:02:45;11.95;;;8.40;;
8564;SDS011;4320;51.498;6.556;2024-02-15T00:05:11;14.95;;;8.98;;
8564;SDS011;4320;51.498;6.556;2024-02-15T00:07:38;19.00;;;9.68;;
8564;SDS011;4320;51.498;6.556;2024-02-15T00:10:04;14.23;;;8.80;;
8564;SDS011;4320;51.498;6.556;2024-02-15T00:12:30;15.32;;;9.27;;
8564;SDS011;4320;51.498;6.556;2024-02-15T00:14:55;18.55;;;10.30;;
8564;SDS011;4320;51.498;6.556;2024-02-15T00:17:24;18.00;;;9.63;;
8564;SDS011;4320;51.498;6.556;2024-02-15T00:19:50;15.88;;;8.63;;
8564;SDS011;4320;51.498;6.556;2024-02-15T00:22:16;12.05;;;9.25;;
8564;SDS011;4320;51.498;6.556;2024-02-15T00:24:42;17.25;;;8.80;;
8564;SDS011;4320;51.498;6.556;2024-02-15T00:27:07;11.63;;;7.95;;
8564;SDS011;4320;51.498;6.556;2024-02-15T00:29:33;11.52;;;7.75;;
8564;SDS011;4320;51.498;6.556;2024-02-15T00:32:00;14.55;;;9.13;;
8564;SDS011;4320;51.498;6.556;2024-02-15T00:34:26;15.98;;;8.60;;
8564;SDS011;4320;51.498;6.556;2024-02-15T00:36:52;14.65;;;8.23;;
8564;SDS011;4320;51.498;6.556;2024-02-15T00:39:18;12.88;;;8.23;;
8564;SDS011;4320;51.498;6.556;2024-02-15T00:41:44;14.77;;;8.88;;
8564;SDS011;4320;51.498;6.556;2024-02-15T00:44:10;16.38;;;8.63;;
8564;SDS011;4320;51.498;6.556;2024-02-15T00:46:36;13.18;;;8.50;;
8564;SDS011;4320;51.498;6.556;2024-02-15T00:49:03;13.23;;;8.20;;
8564;SDS011;4320;51.498;6.556;2024-02-15T00:51:32;15.63;;;8.43;;
8564;SDS011;4320;51.498;6.556;2024-02-15T00:53:59;11.43;;;7.65;;
8564;SDS011;4320;51.498;6.556;2024-02-15T00:56:26;14.18;;;8.35;;
8564;SDS011;4320;51.498;6.556;2024-02-15T00:58:52;13.35;;;8.43;;
8564;SDS011;4320;51.498;6.556;2024-02-15T01:01:18;15.65;;;8.93;;
8564;SDS011;4320;51.498;6.556;2024-02-15T01:03:43;18.27;;;9.23;;
8564;SDS011;4320;51.498;6.556;2024-02-15T01:06:09;17.55;;;9.50;;
8564;SDS011;4320;51.498;6.556;2024-02-15T01:08:34;12.52;;;9.00;;
8564;SDS011;4320;51.498;6.556;2024-02-15T01:11:01;12.40;;;8.38;;
8564;SDS011;4320;51.498;6.556;2024-02-15T01:13:27;19.25;;;10.18;;
8564;SDS011;4320;51.498;6.556;2024-02-15T01:15:53;17.08;;;9.18;;
8564;SDS011;4320;51.498;6.556;2024-02-15T01:18:18;17.92;;;10.73;;
8564;SDS011;4320;51.498;6.556;2024-02-15T01:20:44;14.55;;;10.10;;
8564;SDS011;4320;51.498;6.556;2024-02-15T01:23:10;19.80;;;9.73;;
8564;SDS011;4320;51.498;6.556;2024-02-15T01:25:35;21.73;;;10.75;;
8564;SDS011;4320;51.498;6.556;2024-02-15T01:28:01;22.65;;;11.25;;
8564;SDS011;4320;51.498;6.556;2024-02-15T01:30:27;24.33;;;12.25;;
8564;SDS011;4320;51.498;6.556;2024-02-15T01:32:54;22.02;;;12.38;;
8564;SDS011;4320;51.498;6.556;2024-02-15T01:35:19;21.75;;;12.30;;
8564;SDS011;4320;51.498;6.556;2024-02-15T01:37:45;23.33;;;12.73;;
8564;SDS011;4320;51.498;6.556;2024-02-15T01:40:11;27.60;;;13.85;;
8564;SDS011;4320;51.498;6.556;2024-02-15T01:42:38;27.58;;;14.00;;
8564;SDS011;4320;51.498;6.556;2024-02-15T01:45:04;20.30;;;12.57;;
8564;SDS011;4320;51.498;6.556;2024-02-15T01:47:30;23.92;;;14.05;;
8564;SDS011;4320;51.498;6.556;2024-02-15T01:49:56;24.73;;;12.90;;
8564;SDS011;4320;51.498;6.556;2024-02-15T01:52:23;25.58;;;13.85;;
8564;SDS011;4320;51.498;6.556;2024-02-15T01:54:50;17.55;;;10.35;;
8564;SDS011;4320;51.498;6.556;2024-02-15T01:57:18;22.77;;;13.32;;
8564;SDS011;4320;51.498;6.556;2024-02-15T01:59:46;21.42;;;12.25;;
8564;SDS011;4320;51.498;6.556;2024-02-15T02:02:12;19.52;;;11.05;;
8564;SDS011;4320;51.498;6.556;2024-02-15T02:04:41;22.67;;;11.68;;
8564;SDS011;4320;51.498;6.556;2024-02-15T02:07:07;19.48;;;12.52;;
8564;SDS011;4320;51.498;6.556;2024-02-15T02:09:33;20.88;;;11.88;;
8564;SDS011;4320;51.498;6.556;2024-02-15T02:11:59;18.77;;;11.68;;
8564;SDS011;4320;51.498;6.556;2024-02-15T02:14:25;17.92;;;9.93;;
8564;SDS011;4320;51.498;6.556;2024-02-15T02:16:51;17.38;;;9.63;;
8564;SDS011;4320;51.498;6.556;2024-02-15T02:19:16;18.98;;;10.85;;
8564;SDS011;4320;51.498;6.556;2024-02-15T02:21:43;18.67;;;10.30;;
8564;SDS011;4320;51.498;6.556;2024-02-15T02:24:13;15.30;;;8.88;;
8564;SDS011;4320;51.498;6.556;2024-02-15T02:26:42;19.25;;;8.93;;
8564;SDS011;4320;51.498;6.556;2024-02-15T02:29:08;17.52;;;9.23;;
8564;SDS011;4320;51.498;6.556;2024-02-15T02:31:34;18.23;;;8.57;;
8564;SDS011;4320;51.498;6.556;2024-02-15T02:34:00;14.27;;;8.13;;
8564;SDS011;4320;51.498;6.556;2024-02-15T02:36:26;18.65;;;7.55;;
8564;SDS011;4320;51.498;6.556;2024-02-15T02:38:52;16.58;;;7.47;;
8564;SDS011;4320;51.498;6.556;2024-02-15T02:41:18;13.35;;;6.60;;
8564;SDS011;4320;51.498;6.556;2024-02-15T02:43:44;14.70;;;6.68;;
8564;SDS011;4320;51.498;6.556;2024-02-15T02:46:10;14.50;;;6.97;;
8564;SDS011;4320;51.498;6.556;2024-02-15T02:48:39;13.10;;;6.82;;
8564;SDS011;4320;51.498;6.556;2024-02-15T02:51:06;13.40;;;6.50;;
8564;SDS011;4320;51.498;6.556;2024-02-15T02:53:32;13.65;;;6.90;;
8564;SDS011;4320;51.498;6.556;2024-02-15T02:55:58;13.95;;;6.72;;
8564;SDS011;4320;51.498;6.556;2024-02-15T02:58:24;12.15;;;7.05;;
8564;SDS011;4320;51.498;6.556;2024-02-15T03:00:50;15.00;;;7.15;;
8564;SDS011;4320;51.498;6.556;2024-02-15T03:03:16;17.50;;;6.78;;
8564;SDS011;4320;51.498;6.556;2024-02-15T03:05:44;12.40;;;6.40;;
8564;SDS011;4320;51.498;6.556;2024-02-15T03:08:09;11.68;;;6.45;;
8564;SDS011;4320;51.498;6.556;2024-02-15T03:10:38;14.50;;;6.32;;
8564;SDS011;4320;51.498;6.556;2024-02-15T03:13:05;12.55;;;5.85;;
8564;SDS011;4320;51.498;6.556;2024-02-15T03:15:31;9.82;;;5.68;;
8564;SDS011;4320;51.498;6.556;2024-02-15T03:17:58;22.38;;;11.65;;
8564;SDS011;4320;51.498;6.556;2024-02-15T03:20:23;11.77;;;7.28;;
8564;SDS011;4320;51.498;6.556;2024-02-15T03:22:56;13.95;;;5.50;;
8564;SDS011;4320;51.498;6.556;2024-02-15T03:25:23;16.00;;;6.22;;
8564;SDS011;4320;51.498;6.556;2024-02-15T03:27:49;10.07;;;5.88;;
8564;SDS011;4320;51.498;6.556;2024-02-15T03:30:17;8.93;;;5.13;;
8564;SDS011;4320;51.498;6.556;2024-02-15T03:32:44;10.50;;;5.60;;
8564;SDS011;4320;51.498;6.556;2024-02-15T03:35:10;10.63;;;5.63;;
8564;SDS011;4320;51.498;6.556;2024-02-15T03:37:39;12.40;;;5.82;;
8564;SDS011;4320;51.498;6.556;2024-02-15T03:40:05;9.07;;;5.68;;
8564;SDS011;4320;51.498;6.556;2024-02-15T03:42:31;14.40;;;5.68;;
8564;SDS011;4320;51.498;6.556;2024-02-15T03:44:57;13.80;;;5.90;;
8564;SDS011;4320;51.498;6.556;2024-02-15T03:47:22;9.88;;;5.25;;
8564;SDS011;4320;51.498;6.556;2024-02-15T03:49:48;8.93;;;4.30;;
8564;SDS011;4320;51.498;6.556;2024-02-15T03:52:14;13.27;;;5.00;;
8564;SDS011;4320;51.498;6.556;2024-02-15T03:54:40;11.05;;;4.97;;
8564;SDS011;4320;51.498;6.556;2024-02-15T03:57:08;11.70;;;5.85;;
8564;SDS011;4320;51.498;6.556;2024-02-15T03:59:33;12.05;;;5.15;;
8564;SDS011;4320;51.498;6.556;2024-02-15T04:02:00;12.45;;;4.78;;
8564;SDS011;4320;51.498;6.556;2024-02-15T04:04:28;14.13;;;4.47;;
8564;SDS011;4320;51.498;6.556;2024-02-15T04:06:55;7.38;;;4.40;;
8564;SDS011;4320;51.498;6.556;2024-02-15T04:09:21;12.15;;;4.95;;
8564;SDS011;4320;51.498;6.556;2024-02-15T04:11:47;10.88;;;5.40;;
8564;SDS011;4320;51.498;6.556;2024-02-15T04:14:17;8.95;;;4.93;;
8564;SDS011;4320;51.498;6.556;2024-02-15T04:16:43;8.93;;;4.53;;
8564;SDS011;4320;51.498;6.556;2024-02-15T04:19:10;13.68;;;5.07;;
8564;SDS011;4320;51.498;6.556;2024-02-15T04:21:36;10.93;;;5.30;;
8564;SDS011;4320;51.498;6.556;2024-02-15T04:24:05;14.40;;;6.05;;
8564;SDS011;4320;51.498;6.556;2024-02-15T04:26:31;20.05;;;6.97;;
8564;SDS011;4320;51.498;6.556;2024-02-15T04:28:57;11.55;;;5.28;;
8564;SDS011;4320;51.498;6.556;2024-02-15T04:31:23;14.93;;;5.10;;
8564;SDS011;4320;51.498;6.556;2024-02-15T04:33:54;10.25;;;4.57;;
8564;SDS011;4320;51.498;6.556;2024-02-15T04:36:21;7.80;;;4.70;;
8564;SDS011;4320;51.498;6.556;2024-02-15T04:38:50;11.55;;;4.78;;
8564;SDS011;4320;51.498;6.556;2024-02-15T04:41:17;15.35;;;5.00;;
8564;SDS011;4320;51.498;6.556;2024-02-15T04:43:46;6.90;;;4.25;;
8564;SDS011;4320;51.498;6.556;2024-02-15T04:46:12;10.02;;;4.60;;
8564;SDS011;4320;51.498;6.556;2024-02-15T04:48:39;12.23;;;4.93;;
8564;SDS011;4320;51.498;6.556;2024-02-15T04:51:07;7.07;;;4.10;;
8564;SDS011;4320;51.498;6.556;2024-02-15T04:53:32;12.45;;;4.55;;
8564;SDS011;4320;51.498;6.556;2024-02-15T04:55:58;8.13;;;4.25;;
8564;SDS011;4320;51.498;6.556;2024-02-15T04:58:26;12.30;;;4.18;;
8564;SDS011;4320;51.498;6.556;2024-02-15T05:00:54;16.38;;;4.35;;
8564;SDS011;4320;51.498;6.556;2024-02-15T05:03:23;10.82;;;4.13;;
8564;SDS011;4320;51.498;6.556;2024-02-15T05:05:49;12.93;;;4.53;;
8564;SDS011;4320;51.498;6.556;2024-02-15T05:08:15;13.98;;;4.40;;
8564;SDS011;4320;51.498;6.556;2024-02-15T05:10:40;9.52;;;4.45;;
8564;SDS011;4320;51.498;6.556;2024-02-15T05:13:06;6.57;;;4.38;;
8564;SDS011;4320;51.498;6.556;2024-02-15T05:15:33;7.30;;;3.63;;
8564;SDS011;4320;51.498;6.556;2024-02-15T05:17:58;9.05;;;3.90;;
8564;SDS011;4320;51.498;6.556;2024-02-15T05:20:26;7.55;;;3.78;;
8564;SDS011;4320;51.498;6.556;2024-02-15T05:22:52;10.38;;;3.58;;
8564;SDS011;4320;51.498;6.556;2024-02-15T05:25:19;11.27;;;3.97;;
8564;SDS011;4320;51.498;6.556;2024-02-15T05:27:47;9.60;;;4.10;;
8564;SDS011;4320;51.498;6.556;2024-02-15T05:30:13;8.57;;;4.07;;
8564;SDS011;4320;51.498;6.556;2024-02-15T05:32:40;8.43;;;3.83;;
8564;SDS011;4320;51.498;6.556;2024-02-15T05:35:11;8.48;;;4.10;;
8564;SDS011;4320;51.498;6.556;2024-02-15T05:37:37;8.75;;;3.83;;
8564;SDS011;4320;51.498;6.556;2024-02-15T05:40:03;7.25;;;4.40;;
8564;SDS011;4320;51.498;6.556;2024-02-15T05:42:29;8.50;;;3.95;;
8564;SDS011;4320;51.498;6.556;2024-02-15T05:44:55;12.50;;;4.22;;
8564;SDS011;4320;51.498;6.556;2024-02-15T05:47:40;9.55;;;3.92;;
8564;SDS011;4320;51.498;6.556;2024-02-15T05:50:05;11.85;;;3.92;;
8564;SDS011;4320;51.498;6.556;2024-02-15T05:52:32;8.98;;;4.10;;
8564;SDS011;4320;51.498;6.556;2024-02-15T05:54:57;9.57;;;3.95;;
8564;SDS011;4320;51.498;6.556;2024-02-15T05:57:23;7.88;;;3.53;;
8564;SDS011;4320;51.498;6.556;2024-02-15T05:59:48;8.98;;;3.65;;
8564;SDS011;4320;51.498;6.556;2024-02-15T06:02:14;7.88;;;3.60;;
8564;SDS011;4320;51.498;6.556;2024-02-15T06:04:40;10.55;;;4.00;;
8564;SDS011;4320;51.498;6.556;2024-02-15T06:07:06;8.05;;;2.88;;
8564;SDS011;4320;51.498;6.556;2024-02-15T06:09:34;6.50;;;3.38;;
8564;SDS011;4320;51.498;6.556;2024-02-15T06:12:02;8.95;;;4.65;;
8564;SDS011;4320;51.498;6.556;2024-02-15T06:14:27;7.32;;;3.20;;
8564;SDS011;4320;51.498;6.556;2024-02-15T06:16:53;5.75;;;3.03;;
8564;SDS011;4320;51.498;6.556;2024-02-15T06:19:20;6.82;;;3.17;;
8564;SDS011;4320;51.498;6.556;2024-02-15T06:21:46;9.50;;;3.17;;
8564;SDS011;4320;51.498;6.556;2024-02-15T06:24:12;5.63;;;3.30;;
8564;SDS011;4320;51.498;6.556;2024-02-15T06:26:39;5.85;;;2.97;;
8564;SDS011;4320;51.498;6.556;2024-02-15T06:29:04;7.10;;;3.10;;
8564;SDS011;4320;51.498;6.556;2024-02-15T06:31:48;7.90;;;3.47;;
8564;SDS011;4320;51.498;6.556;2024-02-15T06:34:32;7.63;;;3.72;;
8564;SDS011;4320;51.498;6.556;2024-02-15T06:37:35;8.35;;;3.13;;
8564;SDS011;4320;51.498;6.556;2024-02-15T06:40:22;6.45;;;4.60;;
8564;SDS011;4320;51.498;6.556;2024-02-15T06:42:48;6.65;;;3.30;;
8564;SDS011;4320;51.498;6.556;2024-02-15T06:45:14;7.28;;;3.88;;
8564;SDS011;4320;51.498;6.556;2024-02-15T06:47:41;8.57;;;4.35;;
8564;SDS011;4320;51.498;6.556;2024-02-15T06:50:09;9.25;;;3.50;;
8564;SDS011;4320;51.498;6.556;2024-02-15T06:52:36;10.60;;;4.85;;
8564;SDS011;4320;51.498;6.556;2024-02-15T06:55:03;8.65;;;4.18;;
8564;SDS011;4320;51.498;6.556;2024-02-15T06:57:33;10.13;;;5.72;;
8564;SDS011;4320;51.498;6.556;2024-02-15T07:00:01;8.18;;;4.78;;
8564;SDS011;4320;51.498;6.556;2024-02-15T07:02:32;12.23;;;5.63;;
8564;SDS011;4320;51.498;6.556;2024-02-15T07:04:58;9.95;;;6.45;;
8564;SDS011;4320;51.498;6.556;2024-02-15T07:07:24;13.25;;;7.00;;
8564;SDS011;4320;51.498;6.556;2024-02-15T07:09:50;11.88;;;4.10;;
8564;SDS011;4320;51.498;6.556;2024-02-15T07:12:16;12.02;;;5.95;;
8564;SDS011;4320;51.498;6.556;2024-02-15T07:14:41;7.68;;;3.85;;
8564;SDS011;4320;51.498;6.556;2024-02-15T07:17:08;8.95;;;3.60;;
8564;SDS011;4320;51.498;6.556;2024-02-15T07:19:34;6.78;;;3.50;;
8564;SDS011;4320;51.498;6.556;2024-02-15T07:22:01;10.60;;;3.40;;
8564;SDS011;4320;51.498;6.556;2024-02-15T07:24:27;9.00;;;3.47;;
8564;SDS011;4320;51.498;6.556;2024-02-15T07:26:53;8.55;;;3.40;;
8564;SDS011;4320;51.498;6.556;2024-02-15T07:29:21;6.90;;;3.40;;
8564;SDS011;4320;51.498;6.556;2024-02-15T07:31:48;6.43;;;3.40;;
8564;SDS011;4320;51.498;6.556;2024-02-15T07:34:14;6.97;;;3.65;;
8564;SDS011;4320;51.498;6.556;2024-02-15T07:36:41;9.43;;;3.72;;
8564;SDS011;4320;51.498;6.556;2024-02-15T07:39:08;7.35;;;3.10;;
8564;SDS011;4320;51.498;6.556;2024-02-15T07:41:40;5.07;;;2.92;;
8564;SDS011;4320;51.498;6.556;2024-02-15T07:44:05;6.93;;;2.90;;
8564;SDS011;4320;51.498;6.556;2024-02-15T07:46:31;6.78;;;2.88;;
8564;SDS011;4320;51.498;6.556;2024-02-15T07:48:59;7.22;;;2.70;;
8564;SDS011;4320;51.498;6.556;2024-02-15T07:51:25;8.15;;;3.47;;
8564;SDS011;4320;51.498;6.556;2024-02-15T07:53:51;6.68;;;3.50;;
8564;SDS011;4320;51.498;6.556;2024-02-15T07:56:17;6.32;;;3.78;;
8564;SDS011;4320;51.498;6.556;2024-02-15T07:58:44;8.23;;;3.10;;
8564;SDS011;4320;51.498;6.556;2024-02-15T08:01:14;11.77;;;3.53;;
8564;SDS011;4320;51.498;6.556;2024-02-15T08:03:41;12.55;;;4.15;;
8564;SDS011;4320;51.498;6.556;2024-02-15T08:06:10;7.57;;;3.42;;
8564;SDS011;4320;51.498;6.556;2024-02-15T08:08:40;10.40;;;3.80;;
8564;SDS011;4320;51.498;6.556;2024-02-15T08:11:15;8.02;;;4.20;;
8564;SDS011;4320;51.498;6.556;2024-02-15T08:16:18;9.55;;;4.30;;
8564;SDS011;4320;51.498;6.556;2024-02-15T08:18:45;6.80;;;3.50;;
8564;SDS011;4320;51.498;6.556;2024-02-15T08:21:11;11.27;;;4.15;;
8564;SDS011;4320;51.498;6.556;2024-02-15T08:23:37;8.05;;;4.25;;
8564;SDS011;4320;51.498;6.556;2024-02-15T08:26:03;10.55;;;5.07;;
8564;SDS011;4320;51.498;6.556;2024-02-15T08:28:29;13.77;;;4.50;;
8564;SDS011;4320;51.498;6.556;2024-02-15T08:30:55;8.75;;;4.80;;
8564;SDS011;4320;51.498;6.556;2024-02-15T08:33:22;7.78;;;3.92;;
8564;SDS011;4320;51.498;6.556;2024-02-15T08:35:48;8.98;;;4.22;;
8564;SDS011;4320;51.498;6.556;2024-02-15T08:38:14;8.32;;;3.90;;
8564;SDS011;4320;51.498;6.556;2024-02-15T08:40:40;7.80;;;3.95;;
8564;SDS011;4320;51.498;6.556;2024-02-15T08:43:05;10.98;;;4.30;;
8564;SDS011;4320;51.498;6.556;2024-02-15T08:45:31;8.10;;;4.30;;
8564;SDS011;4320;51.498;6.556;2024-02-15T08:47:56;7.70;;;4.30;;
8564;SDS011;4320;51.498;6.556;2024-02-15T08:50:22;8.27;;;3.85;;
8564;SDS011;4320;51.498;6.556;2024-02-15T08:52:48;7.75;;;4.10;;
8564;SDS011;4320;51.498;6.556;2024-02-15T08:55:15;10.05;;;4.57;;
8564;SDS011;4320;51.498;6.556;2024-02-15T08:57:42;9.30;;;5.00;;
8564;SDS011;4320;51.498;6.556;2024-02-15T09:00:09;9.57;;;4.80;;
8564;SDS011;4320;51.498;6.556;2024-02-15T09:02:41;14.52;;;5.18;;
8564;SDS011;4320;51.498;6.556;2024-02-15T09:05:08;11.73;;;5.53;;
8564;SDS011;4320;51.498;6.556;2024-02-15T09:07:34;12.18;;;5.00;;
8564;SDS011;4320;51.498;6.556;2024-02-15T09:10:01;10.88;;;4.57;;
8564;SDS011;4320;51.498;6.556;2024-02-15T09:12:28;8.20;;;4.82;;
8564;SDS011;4320;51.498;6.556;2024-02-15T09:14:55;8.65;;;5.07;;
8564;SDS011;4320;51.498;6.556;2024-02-15T09:17:21;11.93;;;4.90;;
8564;SDS011;4320;51.498;6.556;2024-02-15T09:19:48;7.97;;;4.70;;
8564;SDS011;4320;51.498;6.556;2024-02-15T09:22:14;12.75;;;5.13;;
8564;SDS011;4320;51.498;6.556;2024-02-15T09:24:40;11.30;;;5.00;;
8564;SDS011;4320;51.498;6.556;2024-02-15T09:27:07;9.52;;;5.00;;
8564;SDS011;4320;51.498;6.556;2024-02-15T09:29:32;9.45;;;5.03;;
8564;SDS011;4320;51.498;6.556;2024-02-15T09:31:58;11.23;;;5.40;;
8564;SDS011;4320;51.498;6.556;2024-02-15T09:34:27;8.50;;;5.35;;
8564;SDS011;4320;51.498;6.556;2024-02-15T09:36:52;10.35;;;4.75;;
8564;SDS011;4320;51.498;6.556;2024-02-15T09:39:18;9.00;;;4.97;;
8564;SDS011;4320;51.498;6.556;2024-02-15T09:41:43;9.10;;;4.90;;
8564;SDS011;4320;51.498;6.556;2024-02-15T09:44:09;11.38;;;4.78;;
8564;SDS011;4320;51.498;6.556;2024-02-15T09:46:36;8.30;;;5.00;;
8564;SDS011;4320;51.498;6.556;2024-02-15T09:49:09;6.82;;;4.72;;
8564;SDS011;4320;51.498;6.556;2024-02-15T09:51:37;10.48;;;5.05;;
8564;SDS011;4320;51.498;6.556;2024-02-15T09:54:04;10.45;;;4.85;;
8564;SDS011;4320;51.498;6.556;2024-02-15T09:56:34;8.63;;;4.72;;
8564;SDS011;4320;51.498;6.556;2024-02-15T09:59:00;7.90;;;5.00;;
8564;SDS011;4320;51.498;6.556;2024-02-15T10:01:27;8.02;;;4.22;;
8564;SDS011;4320;51.498;6.556;2024-02-15T10:03:56;12.18;;;5.07;;
8564;SDS011;4320;51.498;6.556;2024-02-15T10:06:24;11.93;;;5.05;;
8564;SDS011;4320;51.498;6.556;2024-02-15T10:08:52;9.88;;;4.53;;
8564;SDS011;4320;51.498;6.556;2024-02-15T10:11:18;9.98;;;4.90;;
8564;SDS011;4320;51.498;6.556;2024-02-15T10:13:45;8.07;;;4.30;;
8564;SDS011;4320;51.498;6.556;2024-02-15T10:18:41;11.82;;;5.55;;
8564;SDS011;4320;51.498;6.556;2024-02-15T10:21:06;8.75;;;5.28;;
8564;SDS011;4320;51.498;6.556;2024-02-15T10:23:32;13.30;;;5.10;;
8564;SDS011;4320;51.498;6.556;2024-02-15T10:25:58;8.90;;;5.07;;
8564;SDS011;4320;51.498;6.556;2024-02-15T10:28:23;10.75;;;5.97;;
8564;SDS011;4320;51.498;6.556;2024-02-15T10:30:49;7.60;;;5.05;;
8564;SDS011;4320;51.498;6.556;2024-02-15T10:33:26;9.00;;;4.25;;
8564;SDS011;4320;51.498;6.556;2024-02-15T10:36:05;12.70;;;4.97;;
8564;SDS011;4320;51.498;6.556;2024-02-15T10:38:34;8.40;;;4.22;;
8564;SDS011;4320;51.498;6.556;2024-02-15T10:41:03;13.27;;;5.03;;
8564;SDS011;4320;51.498;6.556;2024-02-15T10:43:31;9.43;;;4.75;;
8564;SDS011;4320;51.498;6.556;2024-02-15T10:45:58;11.50;;;5.10;;
8564;SDS011;4320;51.498;6.556;2024-02-15T10:48:25;10.43;;;5.15;;
8564;SDS011;4320;51.498;6.556;2024-02-15T10:50:53;9.43;;;4.03;;
8564;SDS011;4320;51.498;6.556;2024-02-15T10:53:21;10.48;;;4.03;;
8564;SDS011;4320;51.498;6.556;2024-02-15T10:58:51;10.30;;;3.70;;
8564;SDS011;4320;51.498;6.556;2024-02-15T11:01:34;9.45;;;4.05;;
8564;SDS011;4320;51.498;6.556;2024-02-15T11:04:04;7.03;;;3.83;;
8564;SDS011;4320;51.498;6.556;2024-02-15T11:06:33;5.72;;;3.20;;
8564;SDS011;4320;51.498;6.556;2024-02-15T11:09:04;5.72;;;3.03;;
8564;SDS011;4320;51.498;6.556;2024-02-15T11:11:32;7.47;;;3.42;;
8564;SDS011;4320;51.498;6.556;2024-02-15T11:16:53;7.13;;;3.45;;
8564;SDS011;4320;51.498;6.556;2024-02-15T11:22:01;7.00;;;2.90;;
8564;SDS011;4320;51.498;6.556;2024-02-15T11:24:34;9.85;;;3.58;;
8564;SDS011;4320;51.498;6.556;2024-02-15T11:27:03;10.70;;;5.88;;
8564;SDS011;4320;51.498;6.556;2024-02-15T11:29:48;7.93;;;4.28;;
8564;SDS011;4320;51.498;6.556;2024-02-15T11:32:46;15.48;;;6.32;;
8564;SDS011;4320;51.498;6.556;2024-02-15T11:40:24;21.10;;;9.20;;
8564;SDS011;4320;51.498;6.556;2024-02-15T11:42:54;11.80;;;4.78;;
8564;SDS011;4320;51.498;6.556;2024-02-15T11:45:24;12.27;;;5.72;;
8564;SDS011;4320;51.498;6.556;2024-02-15T11:47:52;23.20;;;9.32;;
8564;SDS011;4320;51.498;6.556;2024-02-15T11:50:19;13.48;;;5.32;;
8564;SDS011;4320;51.498;6.556;2024-02-15T11:52:50;20.10;;;8.23;;
8564;SDS011;4320;51.498;6.556;2024-02-15T11:55:22;37.45;;;15.73;;
8564;SDS011;4320;51.498;6.556;2024-02-15T11:57:57;17.08;;;9.88;;
8564;SDS011;4320;51.498;6.556;2024-02-15T12:00:36;11.15;;;4.78;;
8564;SDS011;4320;51.498;6.556;2024-02-15T12:03:21;11.38;;;4.05;;
8564;SDS011;4320;51.498;6.556;2024-02-15T12:06:06;7.50;;;3.20;;
8564;SDS011;4320;51.498;6.556;2024-02-15T12:08:52;8.02;;;3.60;;
8564;SDS011;4320;51.498;6.556;2024-02-15T12:11:36;6.80;;;2.90;;
8564;SDS011;4320;51.498;6.556;2024-02-15T12:14:21;4.18;;;2.70;;
8564;SDS011;4320;51.498;6.556;2024-02-15T12:19:51;5.75;;;3.03;;
8564;SDS011;4320;51.498;6.556;2024-02-15T12:22:21;5.68;;;2.92;;
8564;SDS011;4320;51.498;6.556;2024-02-15T12:24:56;4.18;;;2.65;;
8564;SDS011;4320;51.498;6.556;2024-02-15T12:27:22;4.82;;;2.78;;
8564;SDS011;4320;51.498;6.556;2024-02-15T12:29:52;4.60;;;2.13;;
8564;SDS011;4320;51.498;6.556;2024-02-15T12:32:22;9.95;;;2.50;;
8564;SDS011;4320;51.498;6.556;2024-02-15T12:34:49;8.93;;;3.03;;
8564;SDS011;4320;51.498;6.556;2024-02-15T12:37:17;4.72;;;2.10;;
8564;SDS011;4320;51.498;6.556;2024-02-15T12:39:49;5.85;;;2.50;;
8564;SDS011;4320;51.498;6.556;2024-02-15T12:42:15;5.40;;;2.50;;
8564;SDS011;4320;51.498;6.556;2024-02-15T12:44:45;6.07;;;2.33;;
8564;SDS011;4320;51.498;6.556;2024-02-15T12:47:21;8.32;;;2.30;;
8564;SDS011;4320;51.498;6.556;2024-02-15T12:49:48;6.72;;;2.67;;
8564;SDS011;4320;51.498;6.556;2024-02-15T12:52:35;9.10;;;2.50;;
8564;SDS011;4320;51.498;6.556;2024-02-15T12:57:45;7.80;;;2.40;;
8564;SDS011;4320;51.498;6.556;2024-02-15T13:00:18;5.47;;;2.33;;
8564;SDS011;4320;51.498;6.556;2024-02-15T13:02:47;7.10;;;2.30;;
8564;SDS011;4320;51.498;6.556;2024-02-15T13:05:17;4.93;;;2.20;;
8564;SDS011;4320;51.498;6.556;2024-02-15T13:07:49;3.10;;;1.98;;
8564;SDS011;4320;51.498;6.556;2024-02-15T13:10:15;6.32;;;2.10;;
8564;SDS011;4320;51.498;6.556;2024-02-15T13:12:41;6.68;;;1.98;;
8564;SDS011;4320;51.498;6.556;2024-02-15T13:15:09;6.25;;;2.05;;
8564;SDS011;4320;51.498;6.556;2024-02-15T13:17:46;5.35;;;2.42;;
8564;SDS011;4320;51.498;6.556;2024-02-15T13:20:18;8.98;;;2.28;;
8564;SDS011;4320;51.498;6.556;2024-02-15T13:22:57;5.07;;;2.17;;
8564;SDS011;4320;51.498;6.556;2024-02-15T13:25:27;8.57;;;2.83;;
8564;SDS011;4320;51.498;6.556;2024-02-15T13:27:53;5.05;;;2.92;;
8564;SDS011;4320;51.498;6.556;2024-02-15T13:30:19;8.30;;;2.40;;
8564;SDS011;4320;51.498;6.556;2024-02-15T13:32:48;4.13;;;2.25;;
8564;SDS011;4320;51.498;6.556;2024-02-15T13:35:17;7.25;;;2.40;;
8564;SDS011;4320;51.498;6.556;2024-02-15T13:37:48;4.10;;;2.05;;
8564;SDS011;4320;51.498;6.556;2024-02-15T13:40:19;7.28;;;2.67;;
8564;SDS011;4320;51.498;6.556;2024-02-15T13:42:48;4.88;;;2.20;;
8564;SDS011;4320;51.498;6.556;2024-02-15T13:45:17;5.72;;;2.45;;
8564;SDS011;4320;51.498;6.556;2024-02-15T13:47:54;5.43;;;2.75;;
8564;SDS011;4320;51.498;6.556;2024-02-15T13:50:21;5.82;;;2.30;;
8564;SDS011;4320;51.498;6.556;2024-02-15T13:52:46;4.20;;;2.35;;
8564;SDS011;4320;51.498;6.556;2024-02-15T13:55:16;5.65;;;2.45;;
8564;SDS011;4320;51.498;6.556;2024-02-15T13:57:46;6.80;;;3.45;;
8564;SDS011;4320;51.498;6.556;2024-02-15T14:00:13;8.85;;;2.85;;
8564;SDS011;4320;51.498;6.556;2024-02-15T14:02:51;6.43;;;2.30;;
8564;SDS011;4320;51.498;6.556;2024-02-15T14:05:22;7.57;;;2.88;;
8564;SDS011;4320;51.498;6.556;2024-02-15T14:08:00;7.20;;;2.78;;
8564;SDS011;4320;51.498;6.556;2024-02-15T14:10:30;6.63;;;2.70;;
8564;SDS011;4320;51.498;6.556;2024-02-15T14:12:58;6.90;;;2.33;;
8564;SDS011;4320;51.498;6.556;2024-02-15T14:15:25;6.43;;;2.30;;
8564;SDS011;4320;51.498;6.556;2024-02-15T14:17:50;6.45;;;2.20;;
8564;SDS011;4320;51.498;6.556;2024-02-15T14:20:17;5.38;;;2.00;;
8564;SDS011;4320;51.498;6.556;2024-02-15T14:22:45;7.38;;;2.20;;
8564;SDS011;4320;51.498;6.556;2024-02-15T14:25:17;7.88;;;2.25;;
8564;SDS011;4320;51.498;6.556;2024-02-15T14:27:44;4.03;;;2.25;;
8564;SDS011;4320;51.498;6.556;2024-02-15T14:30:10;4.00;;;1.95;;
8564;SDS011;4320;51.498;6.556;2024-02-15T14:32:55;4.30;;;1.80;;
8564;SDS011;4320;51.498;6.556;2024-02-15T14:37:57;4.05;;;1.88;;
8564;SDS011;4320;51.498;6.556;2024-02-15T14:40:23;5.13;;;2.40;;
8564;SDS011;4320;51.498;6.556;2024-02-15T14:42:48;2.28;;;1.63;;
8564;SDS011;4320;51.498;6.556;2024-02-15T14:45:14;8.45;;;2.30;;
8564;SDS011;4320;51.498;6.556;2024-02-15T14:47:39;2.65;;;1.65;;
8564;SDS011;4320;51.498;6.556;2024-02-15T14:50:07;11.35;;;2.30;;
8564;SDS011;4320;51.498;6.556;2024-02-15T14:52:37;5.43;;;2.20;;
8564;SDS011;4320;51.498;6.556;2024-02-15T14:55:05;3.40;;;2.00;;
8564;SDS011;4320;51.498;6.556;2024-02-15T14:57:32;5.55;;;2.28;;
8564;SDS011;4320;51.498;6.556;2024-02-15T15:00:03;3.80;;;1.90;;
8564;SDS011;4320;51.498;6.556;2024-02-15T15:02:30;4.20;;;2.00;;
8564;SDS011;4320;51.498;6.556;2024-02-15T15:04:55;4.68;;;1.80;;
8564;SDS011;4320;51.498;6.556;2024-02-15T15:07:39;4.03;;;1.90;;
8564;SDS011;4320;51.498;6.556;2024-02-15T15:10:24;6.35;;;2.17;;
8564;SDS011;4320;51.498;6.556;2024-02-15T15:13:08;6.28;;;2.35;;
8564;SDS011;4320;51.498;6.556;2024-02-15T15:15:34;3.22;;;2.00;;
8564;SDS011;4320;51.498;6.556;2024-02-15T15:18:02;3.88;;;2.15;;
8564;SDS011;4320;51.498;6.556;2024-02-15T15:20:29;6.90;;;2.40;;
8564;SDS011;4320;51.498;6.556;2024-02-15T15:22:58;5.55;;;2.10;;
8564;SDS011;4320;51.498;6.556;2024-02-15T15:25:25;3.05;;;2.28;;
8564;SDS011;4320;51.498;6.556;2024-02-15T15:27:53;3.42;;;2.17;;
8564;SDS011;4320;51.498;6.556;2024-02-15T15:30:18;6.45;;;3.15;;
8564;SDS011;4320;51.498;6.556;2024-02-15T15:32:45;4.22;;;2.40;;
8564;SDS011;4320;51.498;6.556;2024-02-15T15:35:11;6.03;;;2.30;;
8564;SDS011;4320;51.498;6.556;2024-02-15T15:37:38;7.57;;;2.38;;
8564;SDS011;4320;51.498;6.556;2024-02-15T15:40:04;2.58;;;2.00;;